sensor_id;sensor_type;location;lat;lon;timestamp;P1;durP1;ratioP1;P2;durP2;ratioP2
52035;SDS011;38046;49.448;32.074;2022-12-29T00:01:31;10.43;;;8.57;;
52035;SDS011;38046;49.448;32.074;2022-12-29T00:03:57;12.38;;;8.18;;
52035;SDS011;38046;49.448;32.074;2022-12-29T00:06:23;10.68;;;8.00;;
52035;SDS011;38046;49.448;32.074;2022-12-29T00:08:49;10.00;;;7.85;;
52035;SDS011;38046;49.448;32.074;2022-12-29T00:11:16;10.57;;;8.35;;
52035;SDS011;38046;49.448;32.074;2022-12-29T00:13:44;13.88;;;8.73;;
52035;SDS011;38046;49.448;32.074;2022-12-29T00:16:29;11.77;;;9.38;;
52035;SDS011;38046;49.448;32.074;2022-12-29T00:18:56;14.38;;;10.75;;
52035;SDS011;38046;49.448;32.074;2022-12-29T00:21:22;16.98;;;11.85;;
52035;SDS011;38046;49.448;32.074;2022-12-29T00:24:09;16.38;;;11.70;;
52035;SDS011;38046;49.448;32.074;2022-12-29T00:29:46;14.35;;;11.23;;
52035;SDS011;38046;49.448;32.074;2022-12-29T00:32:31;13.98;;;10.30;;
52035;SDS011;38046;49.448;32.074;2022-12-29T00:37:55;12.60;;;9.88;;
52035;SDS011;38046;49.448;32.074;2022-12-29T00:40:42;12.35;;;10.05;;
52035;SDS011;38046;49.448;32.074;2022-12-29T00:43:26;11.10;;;8.10;;
52035;SDS011;38046;49.448;32.074;2022-12-29T00:46:10;10.13;;;8.32;;
52035;SDS011;38046;49.448;32.074;2022-12-29T00:48:36;9.60;;;7.95;;
52035;SDS011;38046;49.448;32.074;2022-12-29T00:51:20;9.30;;;6.82;;
52035;SDS011;38046;49.448;32.074;2022-12-29T00:53:46;9.13;;;7.57;;
52035;SDS011;38046;49.448;32.074;2022-12-29T00:56:11;10.60;;;7.32;;
52035;SDS011;38046;49.448;32.074;2022-12-29T00:58:37;9.05;;;7.10;;
52035;SDS011;38046;49.448;32.074;2022-12-29T01:01:03;10.05;;;8.30;;
52035;SDS011;38046;49.448;32.074;2022-12-29T01:03:30;8.80;;;7.47;;
52035;SDS011;38046;49.448;32.074;2022-12-29T01:05:56;9.45;;;7.93;;
52035;SDS011;38046;49.448;32.074;2022-12-29T01:08:21;10.90;;;8.43;;
52035;SDS011;38046;49.448;32.074;2022-12-29T01:10:57;11.65;;;8.88;;
52035;SDS011;38046;49.448;32.074;2022-12-29T01:13:33;10.40;;;8.20;;
52035;SDS011;38046;49.448;32.074;2022-12-29T01:15:59;11.45;;;8.55;;
52035;SDS011;38046;49.448;32.074;2022-12-29T01:18:26;13.85;;;9.50;;
52035;SDS011;38046;49.448;32.074;2022-12-29T01:21:03;10.90;;;9.15;;
52035;SDS011;38046;49.448;32.074;2022-12-29T01:23:30;15.80;;;10.23;;
52035;SDS011;38046;49.448;32.074;2022-12-29T01:25:57;16.85;;;11.23;;
52035;SDS011;38046;49.448;32.074;2022-12-29T01:28:32;16.73;;;10.63;;
52035;SDS011;38046;49.448;32.074;2022-12-29T01:30:59;13.48;;;9.95;;
52035;SDS011;38046;49.448;32.074;2022-12-29T01:33:26;14.07;;;9.43;;
52035;SDS011;38046;49.448;32.074;2022-12-29T01:35:51;11.57;;;8.88;;
52035;SDS011;38046;49.448;32.074;2022-12-29T01:38:17;10.60;;;7.90;;
52035;SDS011;38046;49.448;32.074;2022-12-29T01:40:44;11.77;;;8.52;;
52035;SDS011;38046;49.448;32.074;2022-12-29T01:43:10;10.98;;;7.95;;
52035;SDS011;38046;49.448;32.074;2022-12-29T01:45:39;11.18;;;8.40;;
52035;SDS011;38046;49.448;32.074;2022-12-29T01:48:10;10.13;;;7.93;;
52035;SDS011;38046;49.448;32.074;2022-12-29T01:50:39;11.13;;;8.23;;
52035;SDS011;38046;49.448;32.074;2022-12-29T01:53:13;8.98;;;7.22;;
52035;SDS011;38046;49.448;32.074;2022-12-29T01:55:48;11.00;;;8.13;;
52035;SDS011;38046;49.448;32.074;2022-12-29T01:58:17;10.20;;;7.57;;
52035;SDS011;38046;49.448;32.074;2022-12-29T02:00:46;10.98;;;7.65;;
52035;SDS011;38046;49.448;32.074;2022-12-29T02:03:11;11.82;;;8.02;;
52035;SDS011;38046;49.448;32.074;2022-12-29T02:05:44;10.15;;;7.97;;
52035;SDS011;38046;49.448;32.074;2022-12-29T02:08:10;11.88;;;8.82;;
52035;SDS011;38046;49.448;32.074;2022-12-29T02:10:36;10.10;;;7.97;;
52035;SDS011;38046;49.448;32.074;2022-12-29T02:13:04;10.38;;;7.82;;
52035;SDS011;38046;49.448;32.074;2022-12-29T02:15:42;11.75;;;8.45;;
52035;SDS011;38046;49.448;32.074;2022-12-29T02:18:36;12.13;;;8.65;;
52035;SDS011;38046;49.448;32.074;2022-12-29T02:37:49;12.88;;;8.95;;
52035;SDS011;38046;49.448;32.074;2022-12-29T02:43:23;11.75;;;9.10;;
52035;SDS011;38046;49.448;32.074;2022-12-29T02:46:04;10.45;;;8.07;;
52035;SDS011;38046;49.448;32.074;2022-12-29T02:49:15;12.77;;;8.18;;
52035;SDS011;38046;49.448;32.074;2022-12-29T02:51:59;9.82;;;8.02;;
52035;SDS011;38046;49.448;32.074;2022-12-29T02:54:28;11.13;;;8.23;;
52035;SDS011;38046;49.448;32.074;2022-12-29T02:59:36;9.68;;;7.57;;
52035;SDS011;38046;49.448;32.074;2022-12-29T03:07:24;11.02;;;8.20;;
52035;SDS011;38046;49.448;32.074;2022-12-29T03:15:42;11.43;;;8.35;;
52035;SDS011;38046;49.448;32.074;2022-12-29T03:21:12;11.95;;;8.85;;
52035;SDS011;38046;49.448;32.074;2022-12-29T03:24:15;11.18;;;8.95;;
52035;SDS011;38046;49.448;32.074;2022-12-29T03:26:43;9.38;;;8.20;;
52035;SDS011;38046;49.448;32.074;2022-12-29T03:29:11;10.75;;;8.18;;
52035;SDS011;38046;49.448;32.074;2022-12-29T03:31:38;11.95;;;8.60;;
52035;SDS011;38046;49.448;32.074;2022-12-29T03:34:05;11.35;;;9.18;;
52035;SDS011;38046;49.448;32.074;2022-12-29T03:36:35;11.65;;;9.20;;
52035;SDS011;38046;49.448;32.074;2022-12-29T03:39:09;11.20;;;9.57;;
52035;SDS011;38046;49.448;32.074;2022-12-29T03:41:37;15.85;;;10.23;;
52035;SDS011;38046;49.448;32.074;2022-12-29T03:44:07;14.60;;;10.00;;
52035;SDS011;38046;49.448;32.074;2022-12-29T03:46:33;13.15;;;10.90;;
52035;SDS011;38046;49.448;32.074;2022-12-29T03:48:58;15.15;;;11.85;;
52035;SDS011;38046;49.448;32.074;2022-12-29T03:51:24;15.18;;;11.43;;
52035;SDS011;38046;49.448;32.074;2022-12-29T03:53:50;15.07;;;11.93;;
52035;SDS011;38046;49.448;32.074;2022-12-29T03:56:15;15.85;;;11.95;;
52035;SDS011;38046;49.448;32.074;2022-12-29T03:58:41;12.98;;;10.20;;
52035;SDS011;38046;49.448;32.074;2022-12-29T04:01:07;12.35;;;10.65;;
52035;SDS011;38046;49.448;32.074;2022-12-29T04:03:32;12.65;;;9.88;;
52035;SDS011;38046;49.448;32.074;2022-12-29T04:05:58;12.23;;;9.93;;
52035;SDS011;38046;49.448;32.074;2022-12-29T04:08:24;11.85;;;9.63;;
52035;SDS011;38046;49.448;32.074;2022-12-29T04:10:50;11.18;;;8.88;;
52035;SDS011;38046;49.448;32.074;2022-12-29T04:13:15;14.18;;;8.98;;
52035;SDS011;38046;49.448;32.074;2022-12-29T04:15:42;13.73;;;10.10;;
52035;SDS011;38046;49.448;32.074;2022-12-29T04:18:08;14.35;;;9.93;;
52035;SDS011;38046;49.448;32.074;2022-12-29T04:20:34;15.95;;;11.10;;
52035;SDS011;38046;49.448;32.074;2022-12-29T04:23:18;15.32;;;9.60;;
52035;SDS011;38046;49.448;32.074;2022-12-29T04:25:47;10.68;;;8.85;;
52035;SDS011;38046;49.448;32.074;2022-12-29T04:28:13;12.15;;;9.25;;
52035;SDS011;38046;49.448;32.074;2022-12-29T04:30:40;12.27;;;9.30;;
52035;SDS011;38046;49.448;32.074;2022-12-29T04:33:05;11.20;;;9.18;;
52035;SDS011;38046;49.448;32.074;2022-12-29T04:35:31;12.93;;;8.38;;
52035;SDS011;38046;49.448;32.074;2022-12-29T04:37:57;9.00;;;7.55;;
52035;SDS011;38046;49.448;32.074;2022-12-29T04:40:22;11.77;;;7.88;;
52035;SDS011;38046;49.448;32.074;2022-12-29T04:42:49;10.82;;;8.38;;
52035;SDS011;38046;49.448;32.074;2022-12-29T04:45:15;9.15;;;7.32;;
52035;SDS011;38046;49.448;32.074;2022-12-29T04:47:40;11.23;;;8.05;;
52035;SDS011;38046;49.448;32.074;2022-12-29T04:50:06;10.02;;;7.78;;
52035;SDS011;38046;49.448;32.074;2022-12-29T04:52:32;9.25;;;6.95;;
52035;SDS011;38046;49.448;32.074;2022-12-29T04:54:58;12.55;;;8.43;;
52035;SDS011;38046;49.448;32.074;2022-12-29T04:57:24;8.10;;;6.82;;
52035;SDS011;38046;49.448;32.074;2022-12-29T04:59:49;9.93;;;8.02;;
52035;SDS011;38046;49.448;32.074;2022-12-29T05:02:15;8.23;;;6.85;;
52035;SDS011;38046;49.448;32.074;2022-12-29T05:04:41;7.18;;;6.38;;
52035;SDS011;38046;49.448;32.074;2022-12-29T05:07:07;12.10;;;7.13;;
52035;SDS011;38046;49.448;32.074;2022-12-29T05:09:33;9.25;;;7.28;;
52035;SDS011;38046;49.448;32.074;2022-12-29T05:11:59;9.02;;;6.93;;
52035;SDS011;38046;49.448;32.074;2022-12-29T05:14:25;8.70;;;6.55;;
52035;SDS011;38046;49.448;32.074;2022-12-29T05:16:50;8.85;;;6.47;;
52035;SDS011;38046;49.448;32.074;2022-12-29T05:19:16;7.65;;;6.75;;
52035;SDS011;38046;49.448;32.074;2022-12-29T05:21:42;9.02;;;6.90;;
52035;SDS011;38046;49.448;32.074;2022-12-29T05:24:08;9.75;;;6.63;;
52035;SDS011;38046;49.448;32.074;2022-12-29T05:26:34;9.55;;;6.97;;
52035;SDS011;38046;49.448;32.074;2022-12-29T05:29:00;10.23;;;6.97;;
52035;SDS011;38046;49.448;32.074;2022-12-29T05:31:26;7.55;;;6.57;;
52035;SDS011;38046;49.448;32.074;2022-12-29T05:33:52;11.50;;;7.43;;
52035;SDS011;38046;49.448;32.074;2022-12-29T05:36:18;8.90;;;7.25;;
52035;SDS011;38046;49.448;32.074;2022-12-29T05:38:44;10.00;;;6.50;;
52035;SDS011;38046;49.448;32.074;2022-12-29T05:41:09;9.40;;;7.00;;
52035;SDS011;38046;49.448;32.074;2022-12-29T05:43:35;9.20;;;7.15;;
52035;SDS011;38046;49.448;32.074;2022-12-29T05:46:01;9.75;;;7.32;;
52035;SDS011;38046;49.448;32.074;2022-12-29T05:48:28;10.27;;;6.63;;
52035;SDS011;38046;49.448;32.074;2022-12-29T05:50:54;7.47;;;6.30;;
52035;SDS011;38046;49.448;32.074;2022-12-29T05:53:19;9.88;;;7.00;;
52035;SDS011;38046;49.448;32.074;2022-12-29T05:55:48;10.15;;;6.93;;
52035;SDS011;38046;49.448;32.074;2022-12-29T05:58:14;8.57;;;6.72;;
52035;SDS011;38046;49.448;32.074;2022-12-29T06:00:41;10.38;;;7.20;;
52035;SDS011;38046;49.448;32.074;2022-12-29T06:03:07;7.15;;;6.40;;
52035;SDS011;38046;49.448;32.074;2022-12-29T06:05:32;8.15;;;6.40;;
52035;SDS011;38046;49.448;32.074;2022-12-29T06:07:58;8.68;;;7.15;;
52035;SDS011;38046;49.448;32.074;2022-12-29T06:10:24;10.52;;;7.53;;
52035;SDS011;38046;49.448;32.074;2022-12-29T06:12:50;9.57;;;7.30;;
52035;SDS011;38046;49.448;32.074;2022-12-29T06:15:16;10.93;;;7.85;;
52035;SDS011;38046;49.448;32.074;2022-12-29T06:17:42;10.45;;;7.53;;
52035;SDS011;38046;49.448;32.074;2022-12-29T06:20:08;9.48;;;7.45;;
52035;SDS011;38046;49.448;32.074;2022-12-29T06:22:34;9.88;;;7.20;;
52035;SDS011;38046;49.448;32.074;2022-12-29T06:25:01;9.35;;;6.82;;
52035;SDS011;38046;49.448;32.074;2022-12-29T06:27:26;8.88;;;6.78;;
52035;SDS011;38046;49.448;32.074;2022-12-29T06:29:52;9.60;;;7.22;;
52035;SDS011;38046;49.448;32.074;2022-12-29T06:32:18;11.57;;;7.75;;
52035;SDS011;38046;49.448;32.074;2022-12-29T06:34:44;9.70;;;7.07;;
52035;SDS011;38046;49.448;32.074;2022-12-29T06:37:10;11.13;;;6.85;;
52035;SDS011;38046;49.448;32.074;2022-12-29T06:39:36;7.65;;;6.47;;
52035;SDS011;38046;49.448;32.074;2022-12-29T06:42:01;8.63;;;6.45;;
52035;SDS011;38046;49.448;32.074;2022-12-29T06:44:27;8.98;;;6.65;;
52035;SDS011;38046;49.448;32.074;2022-12-29T06:46:53;9.18;;;7.13;;
52035;SDS011;38046;49.448;32.074;2022-12-29T06:49:19;9.30;;;6.00;;
52035;SDS011;38046;49.448;32.074;2022-12-29T06:51:44;9.32;;;6.95;;
52035;SDS011;38046;49.448;32.074;2022-12-29T06:54:10;8.18;;;6.25;;
52035;SDS011;38046;49.448;32.074;2022-12-29T06:56:36;10.25;;;6.20;;
52035;SDS011;38046;49.448;32.074;2022-12-29T06:59:02;8.20;;;6.45;;
52035;SDS011;38046;49.448;32.074;2022-12-29T07:01:28;9.00;;;6.70;;
52035;SDS011;38046;49.448;32.074;2022-12-29T07:03:54;7.18;;;5.60;;
52035;SDS011;38046;49.448;32.074;2022-12-29T07:06:20;9.07;;;6.82;;
52035;SDS011;38046;49.448;32.074;2022-12-29T07:08:46;8.35;;;6.35;;
52035;SDS011;38046;49.448;32.074;2022-12-29T07:11:11;8.20;;;6.20;;
52035;SDS011;38046;49.448;32.074;2022-12-29T07:13:37;9.48;;;6.38;;
52035;SDS011;38046;49.448;32.074;2022-12-29T07:16:06;9.23;;;6.70;;
52035;SDS011;38046;49.448;32.074;2022-12-29T07:18:33;8.95;;;6.30;;
52035;SDS011;38046;49.448;32.074;2022-12-29T07:21:00;8.23;;;6.88;;
52035;SDS011;38046;49.448;32.074;2022-12-29T07:23:25;10.77;;;6.95;;
52035;SDS011;38046;49.448;32.074;2022-12-29T07:26:01;9.23;;;6.80;;
52035;SDS011;38046;49.448;32.074;2022-12-29T07:28:31;9.05;;;6.95;;
52035;SDS011;38046;49.448;32.074;2022-12-29T07:30:58;10.13;;;7.40;;
52035;SDS011;38046;49.448;32.074;2022-12-29T07:33:24;8.57;;;6.90;;
52035;SDS011;38046;49.448;32.074;2022-12-29T07:35:50;12.00;;;7.93;;
52035;SDS011;38046;49.448;32.074;2022-12-29T07:38:16;10.38;;;7.78;;
52035;SDS011;38046;49.448;32.074;2022-12-29T07:40:42;11.05;;;8.15;;
52035;SDS011;38046;49.448;32.074;2022-12-29T07:43:08;9.77;;;7.28;;
52035;SDS011;38046;49.448;32.074;2022-12-29T07:45:33;9.88;;;7.47;;
52035;SDS011;38046;49.448;32.074;2022-12-29T07:47:59;9.57;;;6.78;;
52035;SDS011;38046;49.448;32.074;2022-12-29T07:50:25;9.80;;;7.30;;
52035;SDS011;38046;49.448;32.074;2022-12-29T07:52:50;10.90;;;6.93;;
52035;SDS011;38046;49.448;32.074;2022-12-29T07:55:16;9.73;;;7.03;;
52035;SDS011;38046;49.448;32.074;2022-12-29T07:57:42;8.85;;;6.60;;
52035;SDS011;38046;49.448;32.074;2022-12-29T08:00:07;9.65;;;6.93;;
52035;SDS011;38046;49.448;32.074;2022-12-29T08:02:34;11.73;;;7.15;;
52035;SDS011;38046;49.448;32.074;2022-12-29T08:05:00;11.32;;;7.28;;
52035;SDS011;38046;49.448;32.074;2022-12-29T08:07:26;9.45;;;7.35;;
52035;SDS011;38046;49.448;32.074;2022-12-29T08:09:52;9.68;;;7.10;;
52035;SDS011;38046;49.448;32.074;2022-12-29T08:12:17;11.20;;;6.88;;
52035;SDS011;38046;49.448;32.074;2022-12-29T08:14:43;7.53;;;6.03;;
52035;SDS011;38046;49.448;32.074;2022-12-29T08:17:09;9.20;;;6.90;;
52035;SDS011;38046;49.448;32.074;2022-12-29T08:19:35;13.60;;;8.93;;
52035;SDS011;38046;49.448;32.074;2022-12-29T08:22:01;10.63;;;7.95;;
52035;SDS011;38046;49.448;32.074;2022-12-29T08:24:27;12.75;;;8.25;;
52035;SDS011;38046;49.448;32.074;2022-12-29T08:26:52;9.18;;;7.25;;
52035;SDS011;38046;49.448;32.074;2022-12-29T08:29:18;8.18;;;6.82;;
52035;SDS011;38046;49.448;32.074;2022-12-29T08:31:44;8.95;;;6.88;;
52035;SDS011;38046;49.448;32.074;2022-12-29T08:34:10;9.73;;;7.18;;
52035;SDS011;38046;49.448;32.074;2022-12-29T08:36:36;9.40;;;6.88;;
52035;SDS011;38046;49.448;32.074;2022-12-29T08:39:01;9.75;;;6.88;;
52035;SDS011;38046;49.448;32.074;2022-12-29T08:41:27;8.57;;;7.20;;
52035;SDS011;38046;49.448;32.074;2022-12-29T08:43:53;8.73;;;6.07;;
52035;SDS011;38046;49.448;32.074;2022-12-29T08:46:18;10.25;;;6.95;;
52035;SDS011;38046;49.448;32.074;2022-12-29T08:48:44;8.25;;;6.50;;
52035;SDS011;38046;49.448;32.074;2022-12-29T08:51:10;10.30;;;6.10;;
52035;SDS011;38046;49.448;32.074;2022-12-29T08:53:36;8.77;;;6.55;;
52035;SDS011;38046;49.448;32.074;2022-12-29T08:56:02;8.77;;;6.47;;
52035;SDS011;38046;49.448;32.074;2022-12-29T08:58:28;8.30;;;6.28;;
52035;SDS011;38046;49.448;32.074;2022-12-29T09:00:55;7.43;;;5.78;;
52035;SDS011;38046;49.448;32.074;2022-12-29T09:03:21;6.63;;;5.43;;
52035;SDS011;38046;49.448;32.074;2022-12-29T09:05:48;8.77;;;6.40;;
52035;SDS011;38046;49.448;32.074;2022-12-29T09:08:15;10.73;;;6.18;;
52035;SDS011;38046;49.448;32.074;2022-12-29T09:10:41;7.72;;;5.68;;
52035;SDS011;38046;49.448;32.074;2022-12-29T09:13:08;9.07;;;6.70;;
52035;SDS011;38046;49.448;32.074;2022-12-29T09:15:34;9.05;;;6.13;;
52035;SDS011;38046;49.448;32.074;2022-12-29T09:17:59;9.48;;;6.47;;
52035;SDS011;38046;49.448;32.074;2022-12-29T09:20:25;8.40;;;5.53;;
52035;SDS011;38046;49.448;32.074;2022-12-29T09:22:51;6.88;;;5.60;;
52035;SDS011;38046;49.448;32.074;2022-12-29T09:25:16;6.95;;;5.25;;
52035;SDS011;38046;49.448;32.074;2022-12-29T09:27:43;7.25;;;5.50;;
52035;SDS011;38046;49.448;32.074;2022-12-29T09:30:09;7.28;;;5.60;;
52035;SDS011;38046;49.448;32.074;2022-12-29T09:32:36;6.70;;;5.70;;
52035;SDS011;38046;49.448;32.074;2022-12-29T09:35:02;8.23;;;5.68;;
52035;SDS011;38046;49.448;32.074;2022-12-29T09:37:28;7.50;;;5.80;;
52035;SDS011;38046;49.448;32.074;2022-12-29T09:39:54;7.38;;;5.75;;
52035;SDS011;38046;49.448;32.074;2022-12-29T09:42:22;7.43;;;5.90;;
52035;SDS011;38046;49.448;32.074;2022-12-29T09:45:10;7.45;;;5.30;;
52035;SDS011;38046;49.448;32.074;2022-12-29T09:47:56;10.00;;;6.85;;
52035;SDS011;38046;49.448;32.074;2022-12-29T09:50:23;8.68;;;5.97;;
52035;SDS011;38046;49.448;32.074;2022-12-29T09:53:13;7.22;;;5.90;;
52035;SDS011;38046;49.448;32.074;2022-12-29T09:55:47;7.45;;;5.80;;
52035;SDS011;38046;49.448;32.074;2022-12-29T09:58:23;8.32;;;6.00;;
52035;SDS011;38046;49.448;32.074;2022-12-29T10:04:27;7.15;;;5.68;;
52035;SDS011;38046;49.448;32.074;2022-12-29T10:07:02;7.05;;;4.80;;
52035;SDS011;38046;49.448;32.074;2022-12-29T10:09:48;7.18;;;4.80;;
52035;SDS011;38046;49.448;32.074;2022-12-29T10:18:18;7.87;;;4.97;;
52035;SDS011;38046;49.448;32.074;2022-12-29T10:24:01;7.93;;;5.75;;
52035;SDS011;38046;49.448;32.074;2022-12-29T10:26:32;9.30;;;6.57;;
52035;SDS011;38046;49.448;32.074;2022-12-29T10:29:10;7.40;;;5.80;;
52035;SDS011;38046;49.448;32.074;2022-12-29T10:31:44;8.07;;;5.88;;
52035;SDS011;38046;49.448;32.074;2022-12-29T10:34:15;11.43;;;6.43;;
52035;SDS011;38046;49.448;32.074;2022-12-29T10:36:48;7.88;;;6.13;;
52035;SDS011;38046;49.448;32.074;2022-12-29T10:39:27;9.40;;;6.30;;
52035;SDS011;38046;49.448;32.074;2022-12-29T10:45:02;8.65;;;5.70;;
52035;SDS011;38046;49.448;32.074;2022-12-29T10:47:31;7.68;;;5.55;;
52035;SDS011;38046;49.448;32.074;2022-12-29T10:52:27;7.40;;;5.90;;
52035;SDS011;38046;49.448;32.074;2022-12-29T10:54:56;7.25;;;5.50;;
52035;SDS011;38046;49.448;32.074;2022-12-29T10:57:42;8.80;;;5.82;;
52035;SDS011;38046;49.448;32.074;2022-12-29T11:00:12;7.38;;;5.60;;
52035;SDS011;38046;49.448;32.074;2022-12-29T11:05:33;7.47;;;5.68;;
52035;SDS011;38046;49.448;32.074;2022-12-29T11:08:20;8.30;;;5.72;;
52035;SDS011;38046;49.448;32.074;2022-12-29T11:10:59;7.57;;;5.47;;
52035;SDS011;38046;49.448;32.074;2022-12-29T11:13:31;7.80;;;6.03;;
52035;SDS011;38046;49.448;32.074;2022-12-29T11:15:58;9.68;;;6.10;;
52035;SDS011;38046;49.448;32.074;2022-12-29T11:18:26;7.03;;;5.75;;
52035;SDS011;38046;49.448;32.074;2022-12-29T11:20:57;13.63;;;11.25;;
52035;SDS011;38046;49.448;32.074;2022-12-29T11:23:38;10.73;;;7.45;;
52035;SDS011;38046;49.448;32.074;2022-12-29T11:26:16;9.70;;;6.55;;
52035;SDS011;38046;49.448;32.074;2022-12-29T11:28:47;9.60;;;6.80;;
52035;SDS011;38046;49.448;32.074;2022-12-29T11:31:30;8.77;;;6.78;;
52035;SDS011;38046;49.448;32.074;2022-12-29T11:33:55;8.35;;;6.43;;
52035;SDS011;38046;49.448;32.074;2022-12-29T11:36:22;8.77;;;6.38;;
52035;SDS011;38046;49.448;32.074;2022-12-29T11:38:50;7.70;;;6.20;;
52035;SDS011;38046;49.448;32.074;2022-12-29T11:41:21;10.18;;;6.78;;
52035;SDS011;38046;49.448;32.074;2022-12-29T11:43:52;8.15;;;6.13;;
52035;SDS011;38046;49.448;32.074;2022-12-29T11:46:31;9.30;;;6.45;;
52035;SDS011;38046;49.448;32.074;2022-12-29T11:48:59;8.45;;;5.97;;
52035;SDS011;38046;49.448;32.074;2022-12-29T11:51:27;8.98;;;6.28;;
52035;SDS011;38046;49.448;32.074;2022-12-29T11:53:59;8.60;;;5.75;;
52035;SDS011;38046;49.448;32.074;2022-12-29T12:02:13;7.32;;;5.68;;
52035;SDS011;38046;49.448;32.074;2022-12-29T12:04:40;8.88;;;6.13;;
52035;SDS011;38046;49.448;32.074;2022-12-29T12:09:33;7.93;;;6.00;;
52035;SDS011;38046;49.448;32.074;2022-12-29T12:12:03;7.93;;;6.28;;
52035;SDS011;38046;49.448;32.074;2022-12-29T12:14:45;11.77;;;7.03;;
52035;SDS011;38046;49.448;32.074;2022-12-29T12:17:22;9.05;;;7.00;;
52035;SDS011;38046;49.448;32.074;2022-12-29T12:19:58;9.45;;;6.60;;
52035;SDS011;38046;49.448;32.074;2022-12-29T12:22:41;8.85;;;7.43;;
52035;SDS011;38046;49.448;32.074;2022-12-29T12:25:34;10.05;;;7.07;;
52035;SDS011;38046;49.448;32.074;2022-12-29T12:28:13;10.15;;;8.13;;
52035;SDS011;38046;49.448;32.074;2022-12-29T12:30:43;10.00;;;7.18;;
52035;SDS011;38046;49.448;32.074;2022-12-29T12:33:15;9.65;;;7.63;;
52035;SDS011;38046;49.448;32.074;2022-12-29T12:36:22;10.25;;;7.32;;
52035;SDS011;38046;49.448;32.074;2022-12-29T12:39:08;9.32;;;7.00;;
52035;SDS011;38046;49.448;32.074;2022-12-29T12:44:28;8.75;;;7.13;;
52035;SDS011;38046;49.448;32.074;2022-12-29T12:47:12;11.20;;;8.00;;
52035;SDS011;38046;49.448;32.074;2022-12-29T12:58:37;7.78;;;6.10;;
52035;SDS011;38046;49.448;32.074;2022-12-29T13:01:18;7.10;;;5.97;;
52035;SDS011;38046;49.448;32.074;2022-12-29T13:04:02;9.23;;;6.38;;
52035;SDS011;38046;49.448;32.074;2022-12-29T13:12:07;9.52;;;7.40;;
52035;SDS011;38046;49.448;32.074;2022-12-29T13:14:43;10.32;;;7.10;;
52035;SDS011;38046;49.448;32.074;2022-12-29T13:22:33;8.43;;;6.25;;
52035;SDS011;38046;49.448;32.074;2022-12-29T13:30:53;7.20;;;5.63;;
52035;SDS011;38046;49.448;32.074;2022-12-29T13:33:33;9.32;;;5.97;;
52035;SDS011;38046;49.448;32.074;2022-12-29T13:36:23;9.70;;;5.93;;
52035;SDS011;38046;49.448;32.074;2022-12-29T13:39:15;8.18;;;5.93;;
52035;SDS011;38046;49.448;32.074;2022-12-29T13:41:52;8.80;;;6.57;;
52035;SDS011;38046;49.448;32.074;2022-12-29T13:44:42;14.85;;;9.65;;
52035;SDS011;38046;49.448;32.074;2022-12-29T13:47:32;8.50;;;6.78;;
52035;SDS011;38046;49.448;32.074;2022-12-29T13:50:02;9.07;;;7.15;;
52035;SDS011;38046;49.448;32.074;2022-12-29T13:52:33;9.77;;;6.57;;
52035;SDS011;38046;49.448;32.074;2022-12-29T13:55:18;7.43;;;5.70;;
52035;SDS011;38046;49.448;32.074;2022-12-29T13:58:03;7.95;;;5.68;;
52035;SDS011;38046;49.448;32.074;2022-12-29T14:04:09;7.80;;;5.70;;
52035;SDS011;38046;49.448;32.074;2022-12-29T14:06:30;6.85;;;5.60;;
52035;SDS011;38046;49.448;32.074;2022-12-29T14:08:59;8.55;;;6.65;;
52035;SDS011;38046;49.448;32.074;2022-12-29T14:11:37;10.10;;;6.97;;
52035;SDS011;38046;49.448;32.074;2022-12-29T14:16:46;11.27;;;7.75;;
52035;SDS011;38046;49.448;32.074;2022-12-29T14:19:15;9.40;;;7.35;;
52035;SDS011;38046;49.448;32.074;2022-12-29T14:21:59;9.40;;;7.00;;
52035;SDS011;38046;49.448;32.074;2022-12-29T14:26:58;10.70;;;8.10;;
52035;SDS011;38046;49.448;32.074;2022-12-29T14:31:49;14.50;;;8.93;;
52035;SDS011;38046;49.448;32.074;2022-12-29T14:37:03;12.45;;;9.48;;
52035;SDS011;38046;49.448;32.074;2022-12-29T14:39:33;13.55;;;9.15;;
52035;SDS011;38046;49.448;32.074;2022-12-29T14:44:45;14.98;;;9.63;;
52035;SDS011;38046;49.448;32.074;2022-12-29T14:47:16;13.27;;;9.50;;
52035;SDS011;38046;49.448;32.074;2022-12-29T14:50:13;13.68;;;9.30;;
52035;SDS011;38046;49.448;32.074;2022-12-29T14:53:03;13.50;;;9.27;;
52035;SDS011;38046;49.448;32.074;2022-12-29T14:55:43;11.43;;;8.98;;
52035;SDS011;38046;49.448;32.074;2022-12-29T15:00:57;11.32;;;8.43;;
52035;SDS011;38046;49.448;32.074;2022-12-29T15:06:10;12.52;;;9.80;;
52035;SDS011;38046;49.448;32.074;2022-12-29T15:08:39;12.23;;;8.82;;
52035;SDS011;38046;49.448;32.074;2022-12-29T15:11:21;11.98;;;7.72;;
52035;SDS011;38046;49.448;32.074;2022-12-29T15:14:00;10.23;;;6.90;;
52035;SDS011;38046;49.448;32.074;2022-12-29T15:16:32;9.25;;;6.97;;
52035;SDS011;38046;49.448;32.074;2022-12-29T15:19:01;10.27;;;8.13;;
52035;SDS011;38046;49.448;32.074;2022-12-29T15:21:34;13.13;;;7.28;;
52035;SDS011;38046;49.448;32.074;2022-12-29T15:24:01;10.20;;;7.68;;
52035;SDS011;38046;49.448;32.074;2022-12-29T15:26:44;11.68;;;7.75;;
52035;SDS011;38046;49.448;32.074;2022-12-29T15:34:43;10.88;;;7.55;;
52035;SDS011;38046;49.448;32.074;2022-12-29T15:37:09;11.00;;;7.75;;
52035;SDS011;38046;49.448;32.074;2022-12-29T15:39:41;9.68;;;7.80;;
52035;SDS011;38046;49.448;32.074;2022-12-29T15:42:16;9.75;;;6.95;;
52035;SDS011;38046;49.448;32.074;2022-12-29T15:45:04;9.88;;;7.15;;
52035;SDS011;38046;49.448;32.074;2022-12-29T15:47:34;10.05;;;7.50;;
52035;SDS011;38046;49.448;32.074;2022-12-29T15:50:09;10.00;;;8.05;;
52035;SDS011;38046;49.448;32.074;2022-12-29T15:52:47;11.23;;;7.57;;
52035;SDS011;38046;49.448;32.074;2022-12-29T15:55:20;10.13;;;7.55;;
52035;SDS011;38046;49.448;32.074;2022-12-29T15:57:57;10.60;;;7.90;;
52035;SDS011;38046;49.448;32.074;2022-12-29T16:00:25;9.60;;;6.82;;
52035;SDS011;38046;49.448;32.074;2022-12-29T16:04:44;8.27;;;6.38;;
52035;SDS011;38046;49.448;32.074;2022-12-29T16:07:27;9.38;;;6.45;;
52035;SDS011;38046;49.448;32.074;2022-12-29T16:09:56;8.73;;;6.22;;
52035;SDS011;38046;49.448;32.074;2022-12-29T16:12:23;8.70;;;6.45;;
52035;SDS011;38046;49.448;32.074;2022-12-29T16:15:02;8.23;;;5.95;;
52035;SDS011;38046;49.448;32.074;2022-12-29T16:17:30;8.82;;;6.72;;
52035;SDS011;38046;49.448;32.074;2022-12-29T16:19:59;10.90;;;7.50;;
52035;SDS011;38046;49.448;32.074;2022-12-29T16:22:31;8.27;;;6.32;;
52035;SDS011;38046;49.448;32.074;2022-12-29T16:27:50;11.43;;;7.90;;
52035;SDS011;38046;49.448;32.074;2022-12-29T16:30:24;12.10;;;8.00;;
52035;SDS011;38046;49.448;32.074;2022-12-29T16:32:55;10.88;;;7.28;;
52035;SDS011;38046;49.448;32.074;2022-12-29T16:35:26;8.55;;;6.93;;
52035;SDS011;38046;49.448;32.074;2022-12-29T16:40:56;10.35;;;7.85;;
52035;SDS011;38046;49.448;32.074;2022-12-29T16:43:30;9.43;;;7.57;;
52035;SDS011;38046;49.448;32.074;2022-12-29T16:46:25;9.48;;;7.40;;
52035;SDS011;38046;49.448;32.074;2022-12-29T16:48:54;11.30;;;7.63;;
52035;SDS011;38046;49.448;32.074;2022-12-29T16:51:31;11.55;;;7.28;;
52035;SDS011;38046;49.448;32.074;2022-12-29T16:54:00;12.82;;;8.82;;
52035;SDS011;38046;49.448;32.074;2022-12-29T16:56:28;12.98;;;9.05;;
52035;SDS011;38046;49.448;32.074;2022-12-29T16:59:30;10.43;;;7.80;;
52035;SDS011;38046;49.448;32.074;2022-12-29T17:02:07;10.48;;;8.18;;
52035;SDS011;38046;49.448;32.074;2022-12-29T17:04:38;10.52;;;8.00;;